createdAt,value
2023-01-15T00:02:07.662Z,6.53
2023-01-15T00:04:35.254Z,6.44
2023-01-15T00:07:02.769Z,6.46
2023-01-15T00:09:30.257Z,6.58
2023-01-15T00:11:57.709Z,6.53
2023-01-15T00:14:25.152Z,6.32
2023-01-15T00:16:53.513Z,6.39
2023-01-15T00:19:21.007Z,6.54
2023-01-15T00:21:48.488Z,6.67
2023-01-15T00:24:34.398Z,6.56
2023-01-15T00:27:20.476Z,6.55
2023-01-15T00:29:47.977Z,6.58
2023-01-15T00:32:15.458Z,6.79
2023-01-15T00:34:42.975Z,6.67
2023-01-15T00:37:10.533Z,6.75
2023-01-15T00:39:38.008Z,6.66
2023-01-15T00:42:05.450Z,6.57
2023-01-15T00:44:33.915Z,6.59
2023-01-15T00:47:01.566Z,6.61
2023-01-15T00:49:30.084Z,6.64
2023-01-15T00:51:57.751Z,6.62
2023-01-15T00:54:25.189Z,6.61
2023-01-15T00:56:53.976Z,6.66
2023-01-15T00:59:21.580Z,6.73
2023-01-15T01:01:49.181Z,6.61
2023-01-15T01:04:16.921Z,6.75
2023-01-15T01:06:44.583Z,6.74
2023-01-15T01:09:16.314Z,6.77
2023-01-15T01:11:44.140Z,6.64
2023-01-15T01:14:12.540Z,6.38
2023-01-15T01:16:42.177Z,6.37
2023-01-15T01:19:12.814Z,6.64
2023-01-15T01:21:42.381Z,6.62
2023-01-15T01:24:12.353Z,6.67
2023-01-15T01:26:40.324Z,6.47
2023-01-15T01:29:08.055Z,6.49
2023-01-15T01:31:35.496Z,6.65
2023-01-15T01:34:03.009Z,6.64
2023-01-15T01:36:34.360Z,6.66
2023-01-15T01:39:03.137Z,6.61
2023-01-15T01:41:31.147Z,6.62
2023-01-15T01:43:59.645Z,6.54
2023-01-15T01:46:29.377Z,6.41
2023-01-15T01:49:02.781Z,6.58
2023-01-15T01:51:37.537Z,6.61
2023-01-15T01:54:06.766Z,6.46
2023-01-15T01:56:36.085Z,6.60
2023-01-15T01:59:05.641Z,6.27
2023-01-15T02:01:33.751Z,6.28
2023-01-15T02:04:02.158Z,6.45
2023-01-15T02:06:31.278Z,6.33
2023-01-15T02:08:58.780Z,6.43
2023-01-15T02:11:27.083Z,6.24
2023-01-15T02:13:58.023Z,6.14
2023-01-15T02:16:47.940Z,6.19
2023-01-15T02:19:50.238Z,6.35
2023-01-15T02:22:34.545Z,6.37
2023-01-15T02:25:11.087Z,6.29
2023-01-15T02:27:42.775Z,6.21
2023-01-15T02:30:17.765Z,6.35
2023-01-15T02:32:57.181Z,6.43
2023-01-15T02:35:45.913Z,6.57
2023-01-15T02:38:19.622Z,6.54
2023-01-15T02:40:54.217Z,6.58
2023-01-15T02:43:25.307Z,6.55
2023-01-15T02:45:55.356Z,6.50
2023-01-15T02:48:26.760Z,6.61
2023-01-15T02:50:59.311Z,6.58
2023-01-15T02:53:30.415Z,6.76
2023-01-15T02:56:06.845Z,6.83
2023-01-15T02:58:43.890Z,6.82
2023-01-15T03:01:25.190Z,6.73
2023-01-15T03:04:02.823Z,6.84
2023-01-15T03:06:56.167Z,6.90
2023-01-15T03:09:24.698Z,7.03
2023-01-15T03:12:14.905Z,7.03
2023-01-15T03:14:52.186Z,7.06
2023-01-15T03:17:33.218Z,6.99
2023-01-15T03:20:25.972Z,6.97
2023-01-15T03:23:09.239Z,7.06
2023-01-15T03:25:45.865Z,7.02
2023-01-15T03:28:15.763Z,6.71
2023-01-15T03:30:43.625Z,6.77
2023-01-15T03:33:11.836Z,6.86
2023-01-15T03:35:40.001Z,6.71
2023-01-15T03:38:09.716Z,6.62
2023-01-15T03:40:42.363Z,6.38
2023-01-15T03:43:34.410Z,6.65
2023-01-15T03:46:06.882Z,6.72
2023-01-15T03:49:29.881Z,6.75
2023-01-15T03:52:01.833Z,6.43
2023-01-15T03:54:53.680Z,6.65
2023-01-15T03:57:39.034Z,6.83
2023-01-15T04:00:18.213Z,6.57
2023-01-15T04:02:52.963Z,6.55
2023-01-15T04:05:21.160Z,6.84
2023-01-15T04:07:51.892Z,6.85
2023-01-15T04:10:19.494Z,6.88
2023-01-15T04:12:49.439Z,6.95
2023-01-15T04:15:17.348Z,6.97
2023-01-15T04:17:45.076Z,7.00
2023-01-15T04:20:13.052Z,6.95
2023-01-15T04:22:42.852Z,6.87
2023-01-15T04:25:11.044Z,6.93
2023-01-15T04:27:38.738Z,6.93
2023-01-15T04:30:06.884Z,7.15
2023-01-15T04:32:34.418Z,7.09
2023-01-15T04:35:02.081Z,6.59
2023-01-15T04:37:29.570Z,6.63
2023-01-15T04:39:57.348Z,6.55
2023-01-15T04:42:43.488Z,6.53
2023-01-15T04:45:11.036Z,6.54
2023-01-15T04:47:38.558Z,6.44
2023-01-15T04:50:06.461Z,6.45
2023-01-15T04:52:33.944Z,6.51
2023-01-15T04:55:01.419Z,6.55
2023-01-15T04:57:28.966Z,6.56
2023-01-15T04:59:56.465Z,6.47
2023-01-15T05:02:56.372Z,6.64
2023-01-15T05:05:24.092Z,6.80
2023-01-15T05:07:51.650Z,6.84
2023-01-15T05:10:19.369Z,6.67
2023-01-15T05:12:46.977Z,6.56
2023-01-15T05:15:14.557Z,6.52
2023-01-15T05:17:42.228Z,6.43
2023-01-15T05:20:10.636Z,6.67
2023-01-15T05:22:38.351Z,6.75
2023-01-15T05:25:06.360Z,6.56
2023-01-15T05:27:33.916Z,6.41
2023-01-15T05:31:03.771Z,6.53
2023-01-15T05:33:34.191Z,6.54
2023-01-15T05:36:05.954Z,6.55
2023-01-15T05:38:38.419Z,6.60
2023-01-15T05:41:30.303Z,6.73
2023-01-15T05:44:01.249Z,6.78
2023-01-15T05:46:29.119Z,6.85
2023-01-15T05:49:03.708Z,6.78
2023-01-15T05:51:31.687Z,6.78
2023-01-15T05:54:03.977Z,6.78
2023-01-15T05:56:40.624Z,6.31
2023-01-15T05:59:13.095Z,6.26
2023-01-15T06:01:43.287Z,6.66
2023-01-15T06:04:14.266Z,6.57
2023-01-15T06:06:43.330Z,6.61
2023-01-15T06:09:11.157Z,6.70
2023-01-15T06:11:42.193Z,6.66
2023-01-15T06:14:12.009Z,6.62
2023-01-15T06:17:18.897Z,6.27
2023-01-15T06:19:46.553Z,6.41
2023-01-15T06:22:14.092Z,6.36
2023-01-15T06:25:15.967Z,6.47
2023-01-15T06:27:44.667Z,6.39
2023-01-15T06:30:12.598Z,6.43
2023-01-15T06:32:40.101Z,6.67
2023-01-15T06:35:08.234Z,6.66
2023-01-15T06:37:36.030Z,6.33
2023-01-15T06:40:04.031Z,6.55
2023-01-15T06:42:50.697Z,6.39
2023-01-15T06:45:36.631Z,6.23
2023-01-15T06:48:04.164Z,6.39
2023-01-15T06:50:34.190Z,6.37
2023-01-15T06:53:01.860Z,6.67
2023-01-15T06:58:46.618Z,6.63
2023-01-15T07:01:15.600Z,6.75
2023-01-15T07:03:44.308Z,6.80
2023-01-15T07:06:15.096Z,6.90
2023-01-15T07:08:42.763Z,6.97
2023-01-15T07:11:13.853Z,7.09
2023-01-15T07:13:43.857Z,6.73
2023-01-15T07:16:27.097Z,6.55
2023-01-15T07:19:18.919Z,6.71
2023-01-15T07:22:18.141Z,6.56
2023-01-15T07:24:46.848Z,6.08
2023-01-15T07:27:14.505Z,6.25
2023-01-15T07:29:42.180Z,6.64
2023-01-15T07:32:17.650Z,6.81
2023-01-15T07:34:45.158Z,6.47
2023-01-15T07:37:16.767Z,6.62
2023-01-15T07:39:44.424Z,6.63
2023-01-15T07:42:30.552Z,6.65
2023-01-15T07:50:20.289Z,6.36
2023-01-15T07:57:37.319Z,6.74
2023-01-15T08:00:53.210Z,7.09
2023-01-15T08:04:48.430Z,7.06
2023-01-15T08:07:53.355Z,6.66
2023-01-15T08:15:17.576Z,6.80
2023-01-15T08:19:13.187Z,6.91
2023-01-15T08:29:42.238Z,7.18
2023-01-15T08:32:24.845Z,7.32
2023-01-15T08:36:22.310Z,7.43
2023-01-15T08:39:28.910Z,7.46
2023-01-15T08:45:20.341Z,7.43
2023-01-15T08:55:20.966Z,7.56
2023-01-15T08:57:52.000Z,7.52
2023-01-15T09:00:26.672Z,7.39
2023-01-15T09:02:59.074Z,6.91
2023-01-15T09:05:29.249Z,6.99
2023-01-15T09:07:56.915Z,7.27
2023-01-15T09:10:24.792Z,7.21
2023-01-15T09:13:12.638Z,7.37
2023-01-15T09:15:42.522Z,7.51
2023-01-15T09:18:12.718Z,7.63
2023-01-15T09:20:42.606Z,7.30
2023-01-15T09:31:30.195Z,7.59
2023-01-15T09:34:24.391Z,7.48
2023-01-15T09:37:01.646Z,7.07
2023-01-15T09:39:29.385Z,7.53
2023-01-15T09:42:24.571Z,7.41
2023-01-15T09:44:54.851Z,7.58
2023-01-15T09:47:36.771Z,7.71
2023-01-15T09:50:31.018Z,7.73
2023-01-15T09:53:35.081Z,7.63
2023-01-15T09:56:04.634Z,7.60
2023-01-15T09:58:36.433Z,7.80
2023-01-15T10:01:05.097Z,7.72
2023-01-15T10:03:32.764Z,7.73
2023-01-15T10:06:13.193Z,7.36
2023-01-15T10:08:48.541Z,7.18
2023-01-15T10:11:16.136Z,7.13
2023-01-15T10:14:02.020Z,6.92
2023-01-15T10:16:31.602Z,7.22
2023-01-15T10:19:02.670Z,7.57
2023-01-15T10:21:51.775Z,7.73
2023-01-15T10:24:29.300Z,7.74
2023-01-15T10:26:58.668Z,8.10
2023-01-15T10:29:45.739Z,8.27
2023-01-15T10:32:19.304Z,8.24
2023-01-15T10:35:15.183Z,8.39
2023-01-15T10:38:09.765Z,8.12
2023-01-15T10:41:29.171Z,8.48
2023-01-15T10:44:14.221Z,8.19
2023-01-15T10:46:52.819Z,8.18
2023-01-15T10:49:47.794Z,7.97
2023-01-15T10:52:34.940Z,7.95
2023-01-15T10:55:29.392Z,7.70
2023-01-15T10:58:34.233Z,8.07
2023-01-15T11:01:10.743Z,8.34
2023-01-15T11:04:30.041Z,8.01
2023-01-15T11:07:01.475Z,7.86
2023-01-15T11:09:32.535Z,7.79
2023-01-15T11:12:19.651Z,7.88
2023-01-15T11:15:06.042Z,8.19
2023-01-15T11:17:57.174Z,7.87
2023-01-15T11:20:24.735Z,7.87
2023-01-15T11:22:53.522Z,8.04
2023-01-15T11:25:31.781Z,8.20
2023-01-15T11:28:07.381Z,8.24
2023-01-15T11:31:35.983Z,8.04
2023-01-15T11:34:21.694Z,8.16
2023-01-15T11:37:05.569Z,8.28
2023-01-15T11:39:52.313Z,8.52
2023-01-15T11:42:45.275Z,8.27
2023-01-15T11:45:37.571Z,8.42
2023-01-15T11:48:35.322Z,8.19
2023-01-15T11:51:09.458Z,8.42
2023-01-15T11:53:46.371Z,8.26
2023-01-15T11:56:23.728Z,8.41
2023-01-15T11:58:56.299Z,8.10
2023-01-15T12:01:36.264Z,8.24
2023-01-15T12:04:08.099Z,8.30
2023-01-15T12:06:43.801Z,8.00
2023-01-15T12:09:28.052Z,8.17
2023-01-15T12:12:05.376Z,8.16
2023-01-15T12:14:44.362Z,8.36
2023-01-15T12:18:19.170Z,7.95
2023-01-15T12:21:11.582Z,7.96
2023-01-15T12:23:51.255Z,7.79
2023-01-15T12:26:31.309Z,8.04
2023-01-15T12:30:16.679Z,8.42
2023-01-15T12:32:51.277Z,8.35
2023-01-15T12:35:31.254Z,8.32
2023-01-15T12:38:18.436Z,8.37
2023-01-15T12:40:52.357Z,8.28
2023-01-15T12:43:43.898Z,8.33
2023-01-15T12:46:39.290Z,8.30
2023-01-15T12:49:42.786Z,8.57
2023-01-15T12:52:24.368Z,8.50
2023-01-15T12:55:01.883Z,8.23
2023-01-15T12:57:40.049Z,8.19
2023-01-15T13:00:14.293Z,7.89
2023-01-15T13:03:39.681Z,8.04
2023-01-15T13:06:13.041Z,7.94
2023-01-15T13:08:46.535Z,7.86
2023-01-15T13:11:14.180Z,7.92
2023-01-15T13:14:40.865Z,8.19
2023-01-15T13:18:04.013Z,8.45
2023-01-15T13:20:55.407Z,8.72
2023-01-15T13:23:56.714Z,8.69
2023-01-15T13:27:21.353Z,8.82
2023-01-15T13:30:24.208Z,8.88
2023-01-15T13:32:57.246Z,8.82
2023-01-15T13:35:42.074Z,8.48
2023-01-15T13:38:18.444Z,8.22
2023-01-15T13:41:55.295Z,8.59
2023-01-15T13:53:39.115Z,9.09
2023-01-15T14:09:51.527Z,8.84
2023-01-15T14:26:33.803Z,8.41
2023-01-15T14:38:18.733Z,8.77
2023-01-15T14:41:16.451Z,8.73
2023-01-15T14:43:49.924Z,8.68
2023-01-15T14:46:39.995Z,8.79
2023-01-15T14:49:34.881Z,8.67
2023-01-15T14:53:37.519Z,8.87
2023-01-15T15:10:50.978Z,8.46
2023-01-15T15:13:44.814Z,8.43
2023-01-15T15:16:43.779Z,8.44
2023-01-15T15:28:15.666Z,8.55
2023-01-15T15:30:51.455Z,8.58
2023-01-15T15:39:37.709Z,8.82
2023-01-15T15:42:04.332Z,8.76
2023-01-15T15:45:09.063Z,8.70
2023-01-15T15:57:38.607Z,8.34
2023-01-15T16:01:30.322Z,8.75
2023-01-15T16:09:11.099Z,8.69
2023-01-15T16:11:44.363Z,8.52
2023-01-15T16:19:03.333Z,8.78
2023-01-15T16:31:01.691Z,8.38
2023-01-15T16:38:28.227Z,8.38
2023-01-15T16:46:25.796Z,8.37
2023-01-15T16:53:39.612Z,8.51
2023-01-15T17:01:38.055Z,8.52
2023-01-15T17:04:46.940Z,8.66
2023-01-15T17:08:52.784Z,8.55
2023-01-15T17:20:36.476Z,8.59
2023-01-15T17:27:41.921Z,8.51
2023-01-15T17:30:18.799Z,8.57
2023-01-15T17:33:00.253Z,8.33
2023-01-15T17:45:03.213Z,8.42
2023-01-15T17:47:36.354Z,8.28
2023-01-15T17:55:55.212Z,8.38
2023-01-15T17:58:49.216Z,8.41
2023-01-15T18:01:49.899Z,8.35
2023-01-15T18:04:51.307Z,8.57
2023-01-15T18:07:29.284Z,8.35
2023-01-15T18:15:07.562Z,8.22
2023-01-15T18:17:42.017Z,8.24
2023-01-15T18:29:15.728Z,7.96
2023-01-15T18:40:55.723Z,7.86
2023-01-15T18:43:54.418Z,7.93
2023-01-15T18:46:44.025Z,7.93
2023-01-15T18:49:13.676Z,7.72
2023-01-15T18:51:44.473Z,7.70
2023-01-15T18:54:37.961Z,7.73
2023-01-15T18:57:05.930Z,7.78
2023-01-15T19:08:46.842Z,8.39
2023-01-15T19:25:06.509Z,7.92
2023-01-15T19:32:05.505Z,7.97
2023-01-15T19:34:38.157Z,7.98
2023-01-15T19:37:11.347Z,8.02
2023-01-15T19:49:07.089Z,8.24
2023-01-15T19:52:24.397Z,8.24
2023-01-15T19:55:00.119Z,8.29
2023-01-15T19:57:27.909Z,8.16
2023-01-15T19:59:56.043Z,8.14
2023-01-15T20:11:55.475Z,7.83
2023-01-15T20:23:36.779Z,7.92
2023-01-15T20:26:07.768Z,7.76
2023-01-15T20:28:37.553Z,7.86
2023-01-15T20:40:11.636Z,7.99
2023-01-15T20:51:48.549Z,7.66
2023-01-15T20:54:16.335Z,7.60
2023-01-15T20:56:47.716Z,7.59
2023-01-15T20:59:15.646Z,7.81
2023-01-15T21:01:45.830Z,7.73
2023-01-15T21:07:59.105Z,7.67
2023-01-15T21:15:28.123Z,7.96
2023-01-15T21:18:00.199Z,7.92
2023-01-15T21:20:30.672Z,7.81
2023-01-15T21:32:09.306Z,7.74
2023-01-15T21:34:36.892Z,7.81
2023-01-15T21:37:04.726Z,7.77
2023-01-15T21:44:25.517Z,7.62
2023-01-15T21:46:53.081Z,7.75
2023-01-15T21:49:21.745Z,7.67
2023-01-15T22:01:48.268Z,7.95
2023-01-15T22:04:19.296Z,7.93
2023-01-15T22:06:50.178Z,7.94
2023-01-15T22:18:35.592Z,8.11
2023-01-15T22:21:22.420Z,8.05
2023-01-15T22:23:56.187Z,7.84
2023-01-15T22:35:40.988Z,8.01
2023-01-15T22:38:11.709Z,8.00
2023-01-15T22:40:46.023Z,7.97
2023-01-15T22:52:27.534Z,8.06
2023-01-15T23:04:16.366Z,7.98
2023-01-15T23:06:44.643Z,7.88
2023-01-15T23:09:27.096Z,8.05
2023-01-15T23:12:12.713Z,8.09
2023-01-15T23:14:42.895Z,7.97
2023-01-15T23:22:02.606Z,8.11
2023-01-15T23:24:42.637Z,8.07
2023-01-15T23:31:50.500Z,7.65
2023-01-15T23:43:45.807Z,7.48
2023-01-15T23:55:22.480Z,7.46
